PWSweather.com
Personal Weather Stations
Station Observations
MIKESPOST
YorkGB

YorkGB

Lat: 53.9577018, Lon: -1.0822855

Elevation: 0

Station Type: WH1081

High Low Average
Temperature 47.5°F8.6°F 33.3°F0.7°F 37.9°F3.3°F
Dew Point 38.4°F3.6°F 26.6°F-3.0°F 31.0°F-0.6°F
Winds 10.3 mph WSW16.6 mph WSW Calm Calm 3.2 mph 5.1 mph
Wind Gusts 24.6 mph39.6 mph -- 9.5 mph15.3 mph
Humidity 88% 59% 77%
Pressure 29.56 in1001.00 in 29.14 in986.80 in -
Precipitation 0.28 in7.10 in - -
Hour Temp Dew Point Humidity Winds Wind Gusts Pressure Precip Precip Rate Daily Precip Total
12:00 AM 34.3°F1.3°C 30.9°F-0.6°C 87% Calm Calm -- 29.14 in986.8 mb 0.00 in0.0 mm 0.00 in/hr0.0 mm/hr 0.00 in0.0 mm
12:20 AM 34.9°F1.6°C 31.7°F-0.2°C 88% 0.8 mph W1.3 kmh W 3.9 mph6.3 kmh 29.15 in987.1 mb 0.00 in0.0 mm 0.00 in/hr0.0 mm/hr 0.00 in0.0 mm
12:40 AM 35.2°F1.8°C 31.8°F-0.1°C 87% 0.4 mph W0.6 kmh W 1.7 mph2.7 kmh 29.15 in987.1 mb 0.00 in0.0 mm 0.00 in/hr0.0 mm/hr 0.00 in0.0 mm
01:00 AM 35.2°F1.8°C 31.8°F-0.1°C 87% 0.8 mph SW1.3 kmh SW 3.9 mph6.3 kmh 29.16 in987.5 mb 0.00 in0.0 mm 0.00 in/hr0.0 mm/hr 0.00 in0.0 mm
01:20 AM 34.9°F1.6°C 31.1°F-0.5°C 86% 0.7 mph WNW1.1 kmh WNW 3.9 mph6.3 kmh 29.16 in987.5 mb 0.00 in0.0 mm 0.00 in/hr0.0 mm/hr 0.00 in0.0 mm
01:40 AM 35.1°F1.7°C 31.6°F-0.2°C 87% 0.6 mph NW1.0 kmh NW 3.9 mph6.3 kmh 29.17 in987.8 mb 0.00 in0.0 mm 0.00 in/hr0.0 mm/hr 0.00 in0.0 mm
02:00 AM 35.6°F2.0°C 31.8°F-0.1°C 86% 0.7 mph NNW1.1 kmh NNW 1.7 mph2.7 kmh 29.17 in987.8 mb 0.00 in0.0 mm 0.00 in/hr0.0 mm/hr 0.00 in0.0 mm
02:20 AM 36.1°F2.3°C 32.1°F0.1°C 85% 0.7 mph NNW1.1 kmh NNW 3.9 mph6.3 kmh 29.18 in988.1 mb 0.00 in0.0 mm 0.00 in/hr0.0 mm/hr 0.00 in0.0 mm
02:40 AM 35.8°F2.1°C 31.4°F-0.3°C 84% 0.7 mph NE1.1 kmh NE 5.6 mph9.0 kmh 29.18 in988.1 mb 0.00 in0.0 mm 0.00 in/hr0.0 mm/hr 0.00 in0.0 mm
03:00 AM 35.8°F2.1°C 31.7°F-0.2°C 85% 0.3 mph E0.5 kmh E 1.7 mph2.7 kmh 29.18 in988.1 mb 0.00 in0.0 mm 0.00 in/hr0.0 mm/hr 0.00 in0.0 mm
03:20 AM 35.4°F1.9°C 31.1°F-0.5°C 84% 0.5 mph S0.8 kmh S 1.7 mph2.7 kmh 29.19 in988.5 mb 0.00 in0.0 mm 0.00 in/hr0.0 mm/hr 0.00 in0.0 mm
03:40 AM 35.1°F1.7°C 30.7°F-0.7°C 84% 0.3 mph SE0.5 kmh SE 1.7 mph2.7 kmh 29.18 in988.1 mb 0.00 in0.0 mm 0.00 in/hr0.0 mm/hr 0.00 in0.0 mm
04:00 AM 35.4°F1.9°C 31.1°F-0.5°C 84% 1.7 mph ENE2.7 kmh ENE 7.8 mph12.6 kmh 29.18 in988.1 mb 0.00 in0.0 mm 0.00 in/hr0.0 mm/hr 0.00 in0.0 mm
04:20 AM 35.1°F1.7°C 30.7°F-0.7°C 84% 0.3 mph SSE0.5 kmh SSE 1.7 mph2.7 kmh 29.19 in988.5 mb 0.00 in0.0 mm 0.00 in/hr0.0 mm/hr 0.00 in0.0 mm
04:40 AM 34.7°F1.5°C 30.1°F-1.1°C 83% Calm Calm -- 29.19 in988.5 mb 0.00 in0.0 mm 0.00 in/hr0.0 mm/hr 0.00 in0.0 mm
05:00 AM 34.5°F1.4°C 29.9°F-1.2°C 83% 0.3 mph SW0.5 kmh SW 1.7 mph2.7 kmh 29.19 in988.5 mb 0.00 in0.0 mm 0.00 in/hr0.0 mm/hr 0.00 in0.0 mm
05:20 AM 34.3°F1.3°C 30.0°F-1.1°C 84% Calm Calm -- 29.19 in988.5 mb 0.00 in0.0 mm 0.00 in/hr0.0 mm/hr 0.00 in0.0 mm
05:40 AM 34.7°F1.5°C 30.4°F-0.9°C 84% 0.9 mph NE1.4 kmh NE 5.6 mph9.0 kmh 29.18 in988.1 mb 0.00 in0.0 mm 0.00 in/hr0.0 mm/hr 0.00 in0.0 mm
06:00 AM 35.6°F2.0°C 31.3°F-0.4°C 84% 2.3 mph ESE3.7 kmh ESE 5.6 mph9.0 kmh 29.19 in988.5 mb 0.00 in0.0 mm 0.00 in/hr0.0 mm/hr 0.00 in0.0 mm
06:20 AM 35.6°F2.0°C 31.0°F-0.6°C 83% 2.7 mph SE4.3 kmh SE 11.2 mph18.0 kmh 29.19 in988.5 mb 0.00 in0.0 mm 0.00 in/hr0.0 mm/hr 0.00 in0.0 mm
06:40 AM 35.4°F1.9°C 30.2°F-1.0°C 81% 2.5 mph E4.0 kmh E 5.6 mph9.0 kmh 29.19 in988.5 mb 0.00 in0.0 mm 0.00 in/hr0.0 mm/hr 0.00 in0.0 mm
07:00 AM 34.7°F1.5°C 29.5°F-1.4°C 81% 1.7 mph E2.7 kmh E 3.9 mph6.3 kmh 29.19 in988.5 mb 0.00 in0.0 mm 0.00 in/hr0.0 mm/hr 0.00 in0.0 mm
07:20 AM 36.0°F2.2°C 31.0°F-0.6°C 82% 0.5 mph SW0.8 kmh SW 1.7 mph2.7 kmh 29.20 in988.8 mb 0.00 in0.0 mm 0.00 in/hr0.0 mm/hr 0.00 in0.0 mm
07:40 AM 35.6°F2.0°C 31.0°F-0.6°C 83% 5.7 mph E9.2 kmh E 13.4 mph21.6 kmh 29.21 in989.2 mb 0.00 in0.0 mm 0.00 in/hr0.0 mm/hr 0.00 in0.0 mm
08:00 AM 35.2°F1.8°C 31.5°F-0.3°C 86% 6.0 mph WSW9.7 kmh WSW 15.1 mph24.3 kmh 29.21 in989.2 mb 0.00 in0.0 mm 0.00 in/hr0.0 mm/hr 0.00 in0.0 mm
08:20 AM 37.9°F3.3°C 33.8°F1.0°C 85% 5.9 mph SW9.5 kmh SW 17.3 mph27.8 kmh 29.22 in989.5 mb 0.00 in0.0 mm 0.00 in/hr0.0 mm/hr 0.00 in0.0 mm
08:40 AM 36.3°F2.4°C 31.7°F-0.2°C 83% 9.5 mph NW15.3 kmh NW 19.0 mph30.6 kmh 29.23 in989.8 mb 0.00 in0.0 mm 0.00 in/hr0.0 mm/hr 0.00 in0.0 mm
09:00 AM 36.0°F2.2°C 31.3°F-0.4°C 83% 7.9 mph NNW12.7 kmh NNW 22.9 mph36.9 kmh 29.23 in989.8 mb 0.00 in0.0 mm 0.00 in/hr0.0 mm/hr 0.00 in0.0 mm
09:20 AM 43.3°F6.3°C 36.0°F2.2°C 75% 4.3 mph N6.9 kmh N 20.7 mph33.3 kmh 29.23 in989.8 mb 0.01 in0.3 mm 0.03 in/hr0.8 mm/hr 0.01 in0.3 mm
09:40 AM 44.6°F7.0°C 32.4°F0.2°C 62% 8.6 mph NNE13.8 kmh NNE 24.6 mph39.6 kmh 29.23 in989.8 mb 0.01 in0.3 mm 0.00 in/hr0.0 mm/hr 0.01 in0.3 mm
10:00 AM 41.7°F5.4°C 30.1°F-1.1°C 63% 10.3 mph WSW16.6 kmh WSW 24.6 mph39.6 kmh 29.26 in990.9 mb 0.01 in0.3 mm 0.00 in/hr0.0 mm/hr 0.01 in0.3 mm
10:20 AM 44.4°F6.9°C 33.8°F1.0°C 66% 5.6 mph SE9.0 kmh SE 15.1 mph24.3 kmh 29.26 in990.9 mb 0.00 in0.0 mm 0.00 in/hr0.0 mm/hr 0.01 in0.3 mm
10:40 AM 45.3°F7.4°C 32.3°F0.2°C 60% 5.1 mph S8.2 kmh S 11.2 mph18.0 kmh 29.26 in990.9 mb 0.00 in0.0 mm 0.00 in/hr0.0 mm/hr 0.01 in0.3 mm
11:00 AM 42.4°F5.8°C 31.5°F-0.3°C 65% 3.4 mph E5.5 kmh E 9.5 mph15.3 kmh 29.27 in991.2 mb 0.00 in0.0 mm 0.00 in/hr0.0 mm/hr 0.01 in0.3 mm
11:20 AM 37.9°F3.3°C 30.7°F-0.7°C 75% 4.6 mph E7.4 kmh E 13.4 mph21.6 kmh 29.29 in991.9 mb 0.00 in0.0 mm 0.00 in/hr0.0 mm/hr 0.01 in0.3 mm
11:40 AM 36.7°F2.6°C 31.1°F-0.5°C 80% 1.0 mph ENE1.6 kmh ENE 5.6 mph9.0 kmh 29.29 in991.9 mb 0.01 in0.3 mm 0.03 in/hr0.8 mm/hr 0.02 in0.5 mm
12:00 PM 39.6°F4.2°C 33.0°F0.6°C 77% 4.3 mph SSE6.9 kmh SSE 7.8 mph12.6 kmh 29.29 in991.9 mb 0.02 in0.5 mm 0.02 in/hr0.5 mm/hr 0.04 in1.0 mm
12:20 PM 46.2°F7.9°C 38.4°F3.6°C 74% 5.7 mph NNW9.2 kmh NNW 19.0 mph30.6 kmh 29.31 in992.6 mb 0.02 in0.5 mm 0.00 in/hr0.0 mm/hr 0.04 in1.0 mm
12:40 PM 43.7°F6.5°C 35.6°F2.0°C 73% 5.0 mph SE8.0 kmh SE 19.0 mph30.6 kmh 29.33 in993.2 mb 0.01 in0.3 mm 0.00 in/hr0.0 mm/hr 0.04 in1.0 mm
01:00 PM 47.5°F8.6°C 36.7°F2.6°C 66% 1.5 mph WNW2.4 kmh WNW 5.6 mph9.0 kmh 29.34 in993.6 mb 0.00 in0.0 mm 0.00 in/hr0.0 mm/hr 0.04 in1.0 mm
01:20 PM 40.3°F4.6°C 32.3°F0.2°C 73% 3.5 mph NNE5.6 kmh NNE 7.8 mph12.6 kmh 29.37 in994.6 mb 0.01 in0.3 mm 0.03 in/hr0.8 mm/hr 0.05 in1.3 mm
01:40 PM 37.2°F2.9°C 31.3°F-0.4°C 79% 3.2 mph NW5.1 kmh NW 9.5 mph15.3 kmh 29.38 in994.9 mb 0.01 in0.3 mm 0.00 in/hr0.0 mm/hr 0.05 in1.3 mm
02:00 PM 39.4°F4.1°C 34.4°F1.3°C 82% 2.0 mph NNE3.2 kmh NNE 7.8 mph12.6 kmh 29.39 in995.3 mb 0.01 in0.3 mm 0.00 in/hr0.0 mm/hr 0.05 in1.3 mm
02:20 PM 42.8°F6.0°C 35.8°F2.1°C 76% 0.7 mph WNW1.1 kmh WNW 3.9 mph6.3 kmh 29.41 in995.9 mb 0.00 in0.0 mm 0.00 in/hr0.0 mm/hr 0.05 in1.3 mm
02:40 PM 42.3°F5.7°C 34.6°F1.4°C 74% 3.9 mph SSW6.3 kmh SSW 11.2 mph18.0 kmh 29.41 in995.9 mb 0.00 in0.0 mm 0.00 in/hr0.0 mm/hr 0.05 in1.3 mm
03:00 PM 42.6°F5.9°C 30.5°F-0.8°C 62% 9.3 mph E15.0 kmh E 19.0 mph30.6 kmh 29.42 in996.3 mb 0.00 in0.0 mm 0.00 in/hr0.0 mm/hr 0.05 in1.3 mm
03:20 PM 42.3°F5.7°C 30.6°F-0.8°C 63% 4.4 mph N7.1 kmh N 13.4 mph21.6 kmh 29.44 in997.0 mb 0.00 in0.0 mm 0.00 in/hr0.0 mm/hr 0.05 in1.3 mm
03:40 PM 41.5°F5.3°C 30.7°F-0.7°C 65% 2.0 mph WSW3.2 kmh WSW 5.6 mph9.0 kmh 29.45 in997.3 mb 0.00 in0.0 mm 0.00 in/hr0.0 mm/hr 0.05 in1.3 mm
04:00 PM 42.6°F5.9°C 29.7°F-1.3°C 60% 6.3 mph SE10.1 kmh SE 17.3 mph27.8 kmh 29.46 in997.6 mb 0.00 in0.0 mm 0.00 in/hr0.0 mm/hr 0.05 in1.3 mm
04:20 PM 42.6°F5.9°C 29.7°F-1.3°C 60% 2.0 mph NW3.2 kmh NW 11.2 mph18.0 kmh 29.47 in998.0 mb 0.00 in0.0 mm 0.00 in/hr0.0 mm/hr 0.05 in1.3 mm
04:40 PM 42.1°F5.6°C 28.8°F-1.8°C 59% 3.2 mph WSW5.1 kmh WSW 17.3 mph27.8 kmh 29.48 in998.3 mb 0.00 in0.0 mm 0.00 in/hr0.0 mm/hr 0.05 in1.3 mm
05:00 PM 40.8°F4.9°C 28.0°F-2.2°C 60% 3.0 mph NNE4.8 kmh NNE 13.4 mph21.6 kmh 29.49 in998.6 mb 0.00 in0.0 mm 0.00 in/hr0.0 mm/hr 0.05 in1.3 mm
05:20 PM 40.1°F4.5°C 27.7°F-2.4°C 61% 3.4 mph SW5.5 kmh SW 13.4 mph21.6 kmh 29.50 in999.0 mb 0.00 in0.0 mm 0.00 in/hr0.0 mm/hr 0.05 in1.3 mm
05:40 PM 39.0°F3.9°C 27.5°F-2.5°C 63% 4.9 mph SSE7.9 kmh SSE 11.2 mph18.0 kmh 29.50 in999.0 mb 0.00 in0.0 mm 0.00 in/hr0.0 mm/hr 0.05 in1.3 mm
06:00 PM 38.1°F3.4°C 27.8°F-2.3°C 66% 2.2 mph S3.5 kmh S 5.6 mph9.0 kmh 29.51 in999.3 mb 0.00 in0.0 mm 0.00 in/hr0.0 mm/hr 0.05 in1.3 mm
06:20 PM 37.8°F3.2°C 27.4°F-2.6°C 66% 2.0 mph SSE3.2 kmh SSE 5.6 mph9.0 kmh 29.51 in999.3 mb 0.00 in0.0 mm 0.00 in/hr0.0 mm/hr 0.05 in1.3 mm
06:40 PM 37.8°F3.2°C 27.4°F-2.6°C 66% 2.8 mph W4.5 kmh W 15.1 mph24.3 kmh 29.52 in999.7 mb 0.00 in0.0 mm 0.00 in/hr0.0 mm/hr 0.05 in1.3 mm
07:00 PM 37.8°F3.2°C 26.7°F-2.9°C 64% 3.6 mph SE5.8 kmh SE 11.2 mph18.0 kmh 29.51 in999.3 mb 0.00 in0.0 mm 0.00 in/hr0.0 mm/hr 0.05 in1.3 mm
07:20 PM 38.5°F3.6°C 26.6°F-3.0°C 62% 9.9 mph NNE15.9 kmh NNE 17.3 mph27.8 kmh 29.50 in999.0 mb 0.00 in0.0 mm 0.00 in/hr0.0 mm/hr 0.05 in1.3 mm
07:40 PM 38.8°F3.8°C 27.7°F-2.4°C 64% 7.0 mph NNW11.3 kmh NNW 19.0 mph30.6 kmh 29.53 in1000.0 mb 0.00 in0.0 mm 0.00 in/hr0.0 mm/hr 0.05 in1.3 mm
08:00 PM 36.9°F2.7°C 29.7°F-1.3°C 75% 6.2 mph NNW10.0 kmh NNW 17.3 mph27.8 kmh 29.54 in1000.3 mb 0.00 in0.0 mm 0.00 in/hr0.0 mm/hr 0.05 in1.3 mm
08:20 PM 35.4°F1.9°C 29.6°F-1.3°C 79% 3.1 mph SW5.0 kmh SW 11.2 mph18.0 kmh 29.52 in999.7 mb 0.01 in0.3 mm 0.03 in/hr0.8 mm/hr 0.06 in1.5 mm
08:40 PM 35.8°F2.1°C 30.5°F-0.8°C 81% 5.4 mph NE8.7 kmh NE 11.2 mph18.0 kmh 29.52 in999.7 mb 0.01 in0.3 mm 0.00 in/hr0.0 mm/hr 0.06 in1.5 mm
09:00 PM 36.3°F2.4°C 30.4°F-0.9°C 79% 8.1 mph W13.0 kmh W 19.0 mph30.6 kmh 29.52 in999.7 mb 0.01 in0.3 mm 0.00 in/hr0.0 mm/hr 0.06 in1.5 mm
09:20 PM 36.3°F2.4°C 30.8°F-0.7°C 80% 3.9 mph E6.3 kmh E 11.2 mph18.0 kmh 29.54 in1000.3 mb 0.00 in0.0 mm 0.00 in/hr0.0 mm/hr 0.06 in1.5 mm
09:40 PM 36.5°F2.5°C 31.2°F-0.4°C 81% 5.0 mph E8.0 kmh E 17.3 mph27.8 kmh 29.55 in1000.7 mb 0.01 in0.3 mm 0.03 in/hr0.8 mm/hr 0.07 in1.8 mm
10:00 PM 34.3°F1.3°C 29.4°F-1.4°C 82% 2.5 mph SE4.0 kmh SE 5.6 mph9.0 kmh 29.55 in1000.7 mb 0.04 in1.0 mm 0.05 in/hr1.3 mm/hr 0.09 in2.3 mm
10:20 PM 33.4°F0.8°C 29.1°F-1.6°C 84% 0.7 mph S1.1 kmh S 1.7 mph2.7 kmh 29.55 in1000.7 mb 0.04 in1.0 mm 0.00 in/hr0.0 mm/hr 0.09 in2.3 mm
10:40 PM 33.3°F0.7°C 29.5°F-1.4°C 86% 0.1 mph S0.2 kmh S 1.7 mph2.7 kmh 29.55 in1000.7 mb 0.02 in0.5 mm 0.00 in/hr0.0 mm/hr 0.09 in2.3 mm
11:00 PM 33.6°F0.9°C 30.2°F-1.0°C 87% 0.3 mph SE0.5 kmh SE 1.7 mph2.7 kmh 29.55 in1000.7 mb 0.00 in0.0 mm 0.00 in/hr0.0 mm/hr 0.09 in2.3 mm
11:20 PM 34.2°F1.2°C 31.0°F-0.6°C 88% 1.0 mph ESE1.6 kmh ESE 3.9 mph6.3 kmh 29.56 in1001.0 mb 0.01 in0.3 mm 0.03 in/hr0.8 mm/hr 0.11 in2.8 mm
11:40 PM 34.5°F1.4°C 31.1°F-0.5°C 87% 1.7 mph E2.7 kmh E 5.6 mph9.0 kmh 29.56 in1001.0 mb 0.01 in0.3 mm 0.00 in/hr0.0 mm/hr 0.11 in2.8 mm